sensor_id;sensor_type;location;lat;lon;timestamp;P1;durP1;ratioP1;P2;durP2;ratioP2
17197;SDS011;8715;51.010;6.812;2022-10-15T00:01:18;518.15;;;497.55;;
17197;SDS011;8715;51.010;6.812;2022-10-15T00:03:44;518.92;;;498.35;;
17197;SDS011;8715;51.010;6.812;2022-10-15T00:06:10;499.00;;;479.45;;
17197;SDS011;8715;51.010;6.812;2022-10-15T00:08:37;515.50;;;495.40;;
17197;SDS011;8715;51.010;6.812;2022-10-15T00:11:04;501.27;;;481.30;;
17197;SDS011;8715;51.010;6.812;2022-10-15T00:13:31;496.17;;;476.48;;
17197;SDS011;8715;51.010;6.812;2022-10-15T00:15:57;509.83;;;487.65;;
17197;SDS011;8715;51.010;6.812;2022-10-15T00:18:22;504.65;;;484.10;;
17197;SDS011;8715;51.010;6.812;2022-10-15T00:20:48;510.92;;;490.55;;
17197;SDS011;8715;51.010;6.812;2022-10-15T00:23:13;507.73;;;487.23;;
17197;SDS011;8715;51.010;6.812;2022-10-15T00:25:38;505.38;;;485.38;;
17197;SDS011;8715;51.010;6.812;2022-10-15T00:28:06;510.02;;;489.42;;
17197;SDS011;8715;51.010;6.812;2022-10-15T00:30:31;518.03;;;497.77;;
17197;SDS011;8715;51.010;6.812;2022-10-15T00:32:56;497.37;;;477.47;;
17197;SDS011;8715;51.010;6.812;2022-10-15T00:35:22;496.20;;;476.67;;
17197;SDS011;8715;51.010;6.812;2022-10-15T00:37:47;489.53;;;469.13;;
17197;SDS011;8715;51.010;6.812;2022-10-15T00:40:12;493.95;;;473.70;;
17197;SDS011;8715;51.010;6.812;2022-10-15T00:42:40;517.88;;;497.30;;
17197;SDS011;8715;51.010;6.812;2022-10-15T00:45:07;486.07;;;466.50;;
17197;SDS011;8715;51.010;6.812;2022-10-15T00:47:37;488.73;;;469.48;;
17197;SDS011;8715;51.010;6.812;2022-10-15T00:50:39;505.60;;;486.08;;
17197;SDS011;8715;51.010;6.812;2022-10-15T00:53:05;484.30;;;465.15;;
17197;SDS011;8715;51.010;6.812;2022-10-15T00:55:33;503.20;;;483.35;;
17197;SDS011;8715;51.010;6.812;2022-10-15T00:58:04;490.05;;;470.42;;
17197;SDS011;8715;51.010;6.812;2022-10-15T01:00:41;502.10;;;482.17;;
17197;SDS011;8715;51.010;6.812;2022-10-15T01:03:06;504.58;;;483.92;;
17197;SDS011;8715;51.010;6.812;2022-10-15T01:05:32;485.10;;;466.05;;
17197;SDS011;8715;51.010;6.812;2022-10-15T01:07:58;511.23;;;490.20;;
17197;SDS011;8715;51.010;6.812;2022-10-15T01:10:25;498.53;;;478.80;;
17197;SDS011;8715;51.010;6.812;2022-10-15T01:15:56;501.10;;;481.08;;
17197;SDS011;8715;51.010;6.812;2022-10-15T01:18:28;485.70;;;466.55;;
17197;SDS011;8715;51.010;6.812;2022-10-15T01:34:55;500.60;;;480.33;;
17197;SDS011;8715;51.010;6.812;2022-10-15T01:37:40;487.95;;;468.70;;
17197;SDS011;8715;51.010;6.812;2022-10-15T01:40:31;506.20;;;486.27;;
17197;SDS011;8715;51.010;6.812;2022-10-15T01:42:59;489.88;;;470.75;;
17197;SDS011;8715;51.010;6.812;2022-10-15T01:45:33;484.45;;;465.20;;
17197;SDS011;8715;51.010;6.812;2022-10-15T01:48:02;484.95;;;465.10;;
17197;SDS011;8715;51.010;6.812;2022-10-15T01:50:30;495.15;;;476.02;;
17197;SDS011;8715;51.010;6.812;2022-10-15T01:52:56;499.92;;;480.13;;
17197;SDS011;8715;51.010;6.812;2022-10-15T01:55:23;483.05;;;464.10;;
17197;SDS011;8715;51.010;6.812;2022-10-15T01:57:48;488.13;;;468.95;;
17197;SDS011;8715;51.010;6.812;2022-10-15T02:00:14;490.20;;;470.80;;
17197;SDS011;8715;51.010;6.812;2022-10-15T02:02:40;504.38;;;484.23;;
17197;SDS011;8715;51.010;6.812;2022-10-15T02:05:08;503.08;;;483.33;;
17197;SDS011;8715;51.010;6.812;2022-10-15T02:07:44;489.92;;;470.13;;
17197;SDS011;8715;51.010;6.812;2022-10-15T02:10:30;503.17;;;483.25;;
17197;SDS011;8715;51.010;6.812;2022-10-15T02:16:01;494.77;;;473.92;;
17197;SDS011;8715;51.010;6.812;2022-10-15T02:18:38;480.20;;;461.02;;
17197;SDS011;8715;51.010;6.812;2022-10-15T02:21:06;487.95;;;468.52;;
17197;SDS011;8715;51.010;6.812;2022-10-15T02:23:41;496.02;;;476.65;;
17197;SDS011;8715;51.010;6.812;2022-10-15T02:26:11;503.75;;;483.88;;
17197;SDS011;8715;51.010;6.812;2022-10-15T02:28:38;496.55;;;476.40;;
17197;SDS011;8715;51.010;6.812;2022-10-15T02:31:05;511.17;;;490.95;;
17197;SDS011;8715;51.010;6.812;2022-10-15T02:33:32;495.80;;;476.13;;
17197;SDS011;8715;51.010;6.812;2022-10-15T02:35:59;495.63;;;476.08;;
17197;SDS011;8715;51.010;6.812;2022-10-15T02:38:25;497.77;;;478.00;;
17197;SDS011;8715;51.010;6.812;2022-10-15T02:40:52;491.75;;;472.20;;
17197;SDS011;8715;51.010;6.812;2022-10-15T02:43:19;498.95;;;479.35;;
17197;SDS011;8715;51.010;6.812;2022-10-15T02:45:45;502.95;;;483.02;;
17197;SDS011;8715;51.010;6.812;2022-10-15T02:48:11;518.28;;;496.80;;
17197;SDS011;8715;51.010;6.812;2022-10-15T02:50:36;501.03;;;481.07;;
17197;SDS011;8715;51.010;6.812;2022-10-15T02:53:01;493.73;;;474.10;;
17197;SDS011;8715;51.010;6.812;2022-10-15T02:55:27;515.83;;;495.17;;
17197;SDS011;8715;51.010;6.812;2022-10-15T02:57:52;493.77;;;473.37;;
17197;SDS011;8715;51.010;6.812;2022-10-15T03:00:18;486.55;;;466.75;;
17197;SDS011;8715;51.010;6.812;2022-10-15T03:02:43;498.98;;;478.67;;
17197;SDS011;8715;51.010;6.812;2022-10-15T03:05:09;495.25;;;475.38;;
17197;SDS011;8715;51.010;6.812;2022-10-15T03:07:34;508.15;;;487.77;;
17197;SDS011;8715;51.010;6.812;2022-10-15T03:10:00;500.40;;;480.13;;
17197;SDS011;8715;51.010;6.812;2022-10-15T03:12:25;485.98;;;466.30;;
17197;SDS011;8715;51.010;6.812;2022-10-15T03:14:51;485.77;;;465.63;;
17197;SDS011;8715;51.010;6.812;2022-10-15T03:17:17;489.63;;;469.60;;
17197;SDS011;8715;51.010;6.812;2022-10-15T03:19:42;491.40;;;471.40;;
17197;SDS011;8715;51.010;6.812;2022-10-15T03:22:08;483.58;;;464.33;;
17197;SDS011;8715;51.010;6.812;2022-10-15T03:24:33;506.40;;;486.30;;
17197;SDS011;8715;51.010;6.812;2022-10-15T03:26:58;494.73;;;474.70;;
17197;SDS011;8715;51.010;6.812;2022-10-15T03:29:24;491.08;;;471.38;;
17197;SDS011;8715;51.010;6.812;2022-10-15T03:31:49;508.48;;;487.95;;
17197;SDS011;8715;51.010;6.812;2022-10-15T03:34:15;487.65;;;468.15;;
17197;SDS011;8715;51.010;6.812;2022-10-15T03:36:40;492.20;;;472.48;;
17197;SDS011;8715;51.010;6.812;2022-10-15T03:39:05;493.75;;;474.30;;
17197;SDS011;8715;51.010;6.812;2022-10-15T03:41:32;495.75;;;475.55;;
17197;SDS011;8715;51.010;6.812;2022-10-15T03:44:01;496.70;;;476.95;;
17197;SDS011;8715;51.010;6.812;2022-10-15T03:48:52;487.87;;;468.30;;
17197;SDS011;8715;51.010;6.812;2022-10-15T03:51:17;475.83;;;456.70;;
17197;SDS011;8715;51.010;6.812;2022-10-15T03:53:43;491.98;;;472.33;;
17197;SDS011;8715;51.010;6.812;2022-10-15T03:56:08;509.52;;;489.35;;
17197;SDS011;8715;51.010;6.812;2022-10-15T03:58:33;497.77;;;477.85;;
17197;SDS011;8715;51.010;6.812;2022-10-15T04:00:59;514.72;;;494.23;;
17197;SDS011;8715;51.010;6.812;2022-10-15T04:03:24;484.27;;;464.95;;
17197;SDS011;8715;51.010;6.812;2022-10-15T04:05:50;492.67;;;473.08;;
17197;SDS011;8715;51.010;6.812;2022-10-15T04:08:16;491.70;;;470.92;;
17197;SDS011;8715;51.010;6.812;2022-10-15T04:10:41;492.60;;;472.25;;
17197;SDS011;8715;51.010;6.812;2022-10-15T04:13:07;496.02;;;475.70;;
17197;SDS011;8715;51.010;6.812;2022-10-15T04:15:32;502.45;;;481.98;;
17197;SDS011;8715;51.010;6.812;2022-10-15T04:17:58;508.17;;;487.97;;
17197;SDS011;8715;51.010;6.812;2022-10-15T04:20:23;511.80;;;491.02;;
17197;SDS011;8715;51.010;6.812;2022-10-15T04:22:49;484.70;;;464.60;;
17197;SDS011;8715;51.010;6.812;2022-10-15T04:25:14;515.00;;;494.08;;
17197;SDS011;8715;51.010;6.812;2022-10-15T04:27:40;479.67;;;459.42;;
17197;SDS011;8715;51.010;6.812;2022-10-15T04:30:05;482.93;;;463.70;;
17197;SDS011;8715;51.010;6.812;2022-10-15T04:32:31;488.98;;;469.40;;
17197;SDS011;8715;51.010;6.812;2022-10-15T04:34:56;516.38;;;495.17;;
17197;SDS011;8715;51.010;6.812;2022-10-15T04:37:22;486.53;;;466.67;;
17197;SDS011;8715;51.010;6.812;2022-10-15T04:39:47;486.80;;;466.70;;
17197;SDS011;8715;51.010;6.812;2022-10-15T04:42:12;494.93;;;474.93;;
17197;SDS011;8715;51.010;6.812;2022-10-15T04:44:38;479.25;;;459.90;;
17197;SDS011;8715;51.010;6.812;2022-10-15T04:47:03;564.47;;;542.13;;
17197;SDS011;8715;51.010;6.812;2022-10-15T04:49:28;489.13;;;469.30;;
17197;SDS011;8715;51.010;6.812;2022-10-15T04:51:54;493.30;;;473.38;;
17197;SDS011;8715;51.010;6.812;2022-10-15T04:54:19;484.63;;;464.92;;
17197;SDS011;8715;51.010;6.812;2022-10-15T04:56:44;478.15;;;458.58;;
17197;SDS011;8715;51.010;6.812;2022-10-15T04:59:10;490.07;;;470.47;;
17197;SDS011;8715;51.010;6.812;2022-10-15T05:01:35;481.10;;;461.90;;
17197;SDS011;8715;51.010;6.812;2022-10-15T05:04:01;486.27;;;466.05;;
17197;SDS011;8715;51.010;6.812;2022-10-15T05:06:26;497.30;;;477.07;;
17197;SDS011;8715;51.010;6.812;2022-10-15T05:08:51;485.37;;;465.37;;
17197;SDS011;8715;51.010;6.812;2022-10-15T05:11:18;487.75;;;467.67;;
17197;SDS011;8715;51.010;6.812;2022-10-15T05:13:45;479.00;;;459.60;;
17197;SDS011;8715;51.010;6.812;2022-10-15T05:18:42;498.48;;;477.90;;
17197;SDS011;8715;51.010;6.812;2022-10-15T05:21:08;480.58;;;461.02;;
17197;SDS011;8715;51.010;6.812;2022-10-15T05:23:33;475.55;;;455.88;;
17197;SDS011;8715;51.010;6.812;2022-10-15T05:26:01;471.27;;;451.77;;
17197;SDS011;8715;51.010;6.812;2022-10-15T05:28:28;479.77;;;459.60;;
17197;SDS011;8715;51.010;6.812;2022-10-15T05:30:54;506.85;;;486.02;;
17197;SDS011;8715;51.010;6.812;2022-10-15T05:33:19;479.80;;;460.05;;
17197;SDS011;8715;51.010;6.812;2022-10-15T05:35:44;475.92;;;456.02;;
17197;SDS011;8715;51.010;6.812;2022-10-15T05:38:10;494.33;;;473.85;;
17197;SDS011;8715;51.010;6.812;2022-10-15T05:40:35;500.20;;;479.95;;
17197;SDS011;8715;51.010;6.812;2022-10-15T05:43:01;505.65;;;484.23;;
17197;SDS011;8715;51.010;6.812;2022-10-15T05:45:26;499.15;;;478.30;;
17197;SDS011;8715;51.010;6.812;2022-10-15T05:47:54;466.60;;;446.53;;
17197;SDS011;8715;51.010;6.812;2022-10-15T05:50:20;473.30;;;453.67;;
17197;SDS011;8715;51.010;6.812;2022-10-15T05:52:48;473.52;;;453.48;;
17197;SDS011;8715;51.010;6.812;2022-10-15T05:55:14;471.42;;;451.15;;
17197;SDS011;8715;51.010;6.812;2022-10-15T05:57:39;484.83;;;463.88;;
17197;SDS011;8715;51.010;6.812;2022-10-15T06:00:05;477.15;;;456.63;;
17197;SDS011;8715;51.010;6.812;2022-10-15T06:02:31;486.67;;;464.80;;
17197;SDS011;8715;51.010;6.812;2022-10-15T06:04:56;505.00;;;483.60;;
17197;SDS011;8715;51.010;6.812;2022-10-15T06:07:22;493.92;;;472.05;;
17197;SDS011;8715;51.010;6.812;2022-10-15T06:09:47;499.60;;;477.38;;
17197;SDS011;8715;51.010;6.812;2022-10-15T06:12:12;477.67;;;456.33;;
17197;SDS011;8715;51.010;6.812;2022-10-15T06:14:38;494.70;;;473.03;;
17197;SDS011;8715;51.010;6.812;2022-10-15T06:17:03;480.40;;;459.70;;
17197;SDS011;8715;51.010;6.812;2022-10-15T06:19:28;504.87;;;482.70;;
17197;SDS011;8715;51.010;6.812;2022-10-15T06:21:53;484.03;;;462.13;;
17197;SDS011;8715;51.010;6.812;2022-10-15T06:24:19;488.53;;;466.77;;
17197;SDS011;8715;51.010;6.812;2022-10-15T06:26:44;485.67;;;464.23;;
17197;SDS011;8715;51.010;6.812;2022-10-15T06:29:09;493.60;;;471.58;;
17197;SDS011;8715;51.010;6.812;2022-10-15T06:31:35;487.13;;;465.90;;
17197;SDS011;8715;51.010;6.812;2022-10-15T06:34:00;488.75;;;467.95;;
17197;SDS011;8715;51.010;6.812;2022-10-15T06:36:25;477.33;;;456.90;;
17197;SDS011;8715;51.010;6.812;2022-10-15T06:38:51;479.33;;;459.67;;
17197;SDS011;8715;51.010;6.812;2022-10-15T06:41:16;509.35;;;488.33;;
17197;SDS011;8715;51.010;6.812;2022-10-15T06:43:42;498.17;;;477.27;;
17197;SDS011;8715;51.010;6.812;2022-10-15T06:46:07;482.30;;;462.52;;
17197;SDS011;8715;51.010;6.812;2022-10-15T06:48:32;490.83;;;470.00;;
17197;SDS011;8715;51.010;6.812;2022-10-15T06:50:59;478.35;;;458.73;;
17197;SDS011;8715;51.010;6.812;2022-10-15T06:53:24;498.05;;;477.45;;
17197;SDS011;8715;51.010;6.812;2022-10-15T06:55:50;489.17;;;468.80;;
17197;SDS011;8715;51.010;6.812;2022-10-15T06:58:16;495.97;;;475.57;;
17197;SDS011;8715;51.010;6.812;2022-10-15T07:00:41;491.55;;;471.38;;
17197;SDS011;8715;51.010;6.812;2022-10-15T07:03:06;508.42;;;488.13;;
17197;SDS011;8715;51.010;6.812;2022-10-15T07:05:32;488.42;;;468.88;;
17197;SDS011;8715;51.010;6.812;2022-10-15T07:07:58;495.67;;;475.17;;
17197;SDS011;8715;51.010;6.812;2022-10-15T07:10:24;487.20;;;467.35;;
17197;SDS011;8715;51.010;6.812;2022-10-15T07:12:50;502.55;;;482.08;;
17197;SDS011;8715;51.010;6.812;2022-10-15T07:15:16;507.20;;;486.92;;
17197;SDS011;8715;51.010;6.812;2022-10-15T07:17:45;505.15;;;484.92;;
17197;SDS011;8715;51.010;6.812;2022-10-15T07:20:14;498.33;;;477.95;;
17197;SDS011;8715;51.010;6.812;2022-10-15T07:22:40;509.48;;;489.02;;
17197;SDS011;8715;51.010;6.812;2022-10-15T07:25:05;511.55;;;491.17;;
17197;SDS011;8715;51.010;6.812;2022-10-15T07:27:31;519.78;;;498.48;;
17197;SDS011;8715;51.010;6.812;2022-10-15T07:29:56;505.27;;;484.33;;
17197;SDS011;8715;51.010;6.812;2022-10-15T07:32:22;495.60;;;475.63;;
17197;SDS011;8715;51.010;6.812;2022-10-15T07:34:47;536.83;;;515.03;;
17197;SDS011;8715;51.010;6.812;2022-10-15T07:37:13;504.52;;;484.13;;
17197;SDS011;8715;51.010;6.812;2022-10-15T07:39:38;498.17;;;478.37;;
17197;SDS011;8715;51.010;6.812;2022-10-15T07:42:03;509.00;;;488.63;;
17197;SDS011;8715;51.010;6.812;2022-10-15T07:44:28;514.65;;;494.50;;
17197;SDS011;8715;51.010;6.812;2022-10-15T07:46:54;512.87;;;492.43;;
17197;SDS011;8715;51.010;6.812;2022-10-15T07:49:19;510.13;;;489.60;;
17197;SDS011;8715;51.010;6.812;2022-10-15T07:51:44;516.87;;;496.20;;
17197;SDS011;8715;51.010;6.812;2022-10-15T07:54:10;509.67;;;489.30;;
17197;SDS011;8715;51.010;6.812;2022-10-15T07:56:35;519.50;;;499.03;;
17197;SDS011;8715;51.010;6.812;2022-10-15T07:59:00;512.70;;;492.57;;
17197;SDS011;8715;51.010;6.812;2022-10-15T08:01:26;525.37;;;504.20;;
17197;SDS011;8715;51.010;6.812;2022-10-15T08:03:51;526.97;;;505.73;;
17197;SDS011;8715;51.010;6.812;2022-10-15T08:06:16;537.28;;;515.85;;
17197;SDS011;8715;51.010;6.812;2022-10-15T08:08:43;523.70;;;501.70;;
17197;SDS011;8715;51.010;6.812;2022-10-15T08:11:12;529.83;;;508.85;;
17197;SDS011;8715;51.010;6.812;2022-10-15T08:13:39;532.60;;;511.67;;
17197;SDS011;8715;51.010;6.812;2022-10-15T08:16:07;528.15;;;507.40;;
17197;SDS011;8715;51.010;6.812;2022-10-15T08:18:32;530.85;;;509.35;;
17197;SDS011;8715;51.010;6.812;2022-10-15T08:20:59;535.65;;;515.05;;
17197;SDS011;8715;51.010;6.812;2022-10-15T08:23:25;538.78;;;516.72;;
17197;SDS011;8715;51.010;6.812;2022-10-15T08:25:50;542.53;;;520.85;;
17197;SDS011;8715;51.010;6.812;2022-10-15T08:28:15;543.22;;;521.33;;
17197;SDS011;8715;51.010;6.812;2022-10-15T08:30:41;546.93;;;525.40;;
17197;SDS011;8715;51.010;6.812;2022-10-15T08:33:06;550.25;;;528.72;;
17197;SDS011;8715;51.010;6.812;2022-10-15T08:35:31;535.37;;;513.73;;
17197;SDS011;8715;51.010;6.812;2022-10-15T08:38:03;551.03;;;529.10;;
17197;SDS011;8715;51.010;6.812;2022-10-15T08:40:28;553.80;;;531.90;;
17197;SDS011;8715;51.010;6.812;2022-10-15T08:42:54;547.75;;;525.70;;
17197;SDS011;8715;51.010;6.812;2022-10-15T08:48:01;559.03;;;536.97;;
17197;SDS011;8715;51.010;6.812;2022-10-15T08:53:18;557.83;;;536.08;;
17197;SDS011;8715;51.010;6.812;2022-10-15T08:55:45;553.90;;;531.90;;
17197;SDS011;8715;51.010;6.812;2022-10-15T09:01:00;567.28;;;544.90;;
17197;SDS011;8715;51.010;6.812;2022-10-15T09:06:35;563.85;;;541.60;;
17197;SDS011;8715;51.010;6.812;2022-10-15T09:15:08;564.45;;;542.28;;
17197;SDS011;8715;51.010;6.812;2022-10-15T09:17:37;566.90;;;544.05;;
17197;SDS011;8715;51.010;6.812;2022-10-15T09:20:04;570.25;;;547.78;;
17197;SDS011;8715;51.010;6.812;2022-10-15T09:22:31;572.60;;;549.95;;
17197;SDS011;8715;51.010;6.812;2022-10-15T09:24:57;571.95;;;549.38;;
17197;SDS011;8715;51.010;6.812;2022-10-15T09:27:30;579.17;;;555.88;;
17197;SDS011;8715;51.010;6.812;2022-10-15T09:32:50;584.78;;;561.45;;
17197;SDS011;8715;51.010;6.812;2022-10-15T09:38:05;584.38;;;561.13;;
17197;SDS011;8715;51.010;6.812;2022-10-15T09:43:29;597.75;;;573.72;;
17197;SDS011;8715;51.010;6.812;2022-10-15T09:45:59;586.67;;;563.35;;
17197;SDS011;8715;51.010;6.812;2022-10-15T09:48:25;596.97;;;573.13;;
17197;SDS011;8715;51.010;6.812;2022-10-15T09:50:59;597.60;;;573.45;;
17197;SDS011;8715;51.010;6.812;2022-10-15T09:56:15;605.60;;;580.75;;
17197;SDS011;8715;51.010;6.812;2022-10-15T09:58:49;610.60;;;584.80;;
17197;SDS011;8715;51.010;6.812;2022-10-15T10:01:20;600.33;;;576.13;;
17197;SDS011;8715;51.010;6.812;2022-10-15T10:03:50;604.35;;;580.17;;
17197;SDS011;8715;51.010;6.812;2022-10-15T10:06:17;606.33;;;581.70;;
17197;SDS011;8715;51.010;6.812;2022-10-15T10:08:53;602.97;;;577.67;;
17197;SDS011;8715;51.010;6.812;2022-10-15T10:11:21;616.80;;;590.00;;
17197;SDS011;8715;51.010;6.812;2022-10-15T10:16:13;599.40;;;574.90;;
17197;SDS011;8715;51.010;6.812;2022-10-15T10:18:39;609.97;;;585.28;;
17197;SDS011;8715;51.010;6.812;2022-10-15T10:21:19;611.80;;;586.95;;
17197;SDS011;8715;51.010;6.812;2022-10-15T10:23:46;610.97;;;586.08;;
17197;SDS011;8715;51.010;6.812;2022-10-15T10:26:12;605.85;;;581.22;;
17197;SDS011;8715;51.010;6.812;2022-10-15T10:31:10;611.88;;;586.08;;
17197;SDS011;8715;51.010;6.812;2022-10-15T10:33:44;607.53;;;582.72;;
17197;SDS011;8715;51.010;6.812;2022-10-15T10:36:29;614.50;;;589.35;;
17197;SDS011;8715;51.010;6.812;2022-10-15T10:39:09;616.63;;;591.28;;
17197;SDS011;8715;51.010;6.812;2022-10-15T10:41:51;613.60;;;588.63;;
17197;SDS011;8715;51.010;6.812;2022-10-15T10:44:27;614.17;;;589.25;;
17197;SDS011;8715;51.010;6.812;2022-10-15T10:49:31;606.17;;;581.92;;
17197;SDS011;8715;51.010;6.812;2022-10-15T10:51:58;607.88;;;583.63;;
17197;SDS011;8715;51.010;6.812;2022-10-15T10:54:23;608.17;;;583.83;;
17197;SDS011;8715;51.010;6.812;2022-10-15T10:56:50;605.88;;;581.17;;
17197;SDS011;8715;51.010;6.812;2022-10-15T11:01:56;607.63;;;582.90;;
17197;SDS011;8715;51.010;6.812;2022-10-15T11:04:29;609.53;;;584.55;;
17197;SDS011;8715;51.010;6.812;2022-10-15T11:07:04;599.22;;;575.03;;
17197;SDS011;8715;51.010;6.812;2022-10-15T11:12:27;603.58;;;578.72;;
17197;SDS011;8715;51.010;6.812;2022-10-15T11:23:44;615.67;;;590.78;;
17197;SDS011;8715;51.010;6.812;2022-10-15T11:26:34;613.58;;;588.22;;
17197;SDS011;8715;51.010;6.812;2022-10-15T11:31:46;606.42;;;581.97;;
17197;SDS011;8715;51.010;6.812;2022-10-15T11:37:09;604.85;;;580.22;;
17197;SDS011;8715;51.010;6.812;2022-10-15T11:42:37;606.38;;;582.00;;
17197;SDS011;8715;51.010;6.812;2022-10-15T11:48:04;613.28;;;588.22;;
17197;SDS011;8715;51.010;6.812;2022-10-15T11:55:49;620.00;;;594.45;;
17197;SDS011;8715;51.010;6.812;2022-10-15T11:58:29;624.08;;;598.40;;
17197;SDS011;8715;51.010;6.812;2022-10-15T12:00:59;641.05;;;614.72;;
17197;SDS011;8715;51.010;6.812;2022-10-15T12:03:28;627.28;;;601.28;;
17197;SDS011;8715;51.010;6.812;2022-10-15T12:05:57;627.55;;;601.67;;
17197;SDS011;8715;51.010;6.812;2022-10-15T12:08:25;630.55;;;604.53;;
17197;SDS011;8715;51.010;6.812;2022-10-15T12:16:07;623.40;;;597.85;;
17197;SDS011;8715;51.010;6.812;2022-10-15T12:18:49;629.05;;;603.33;;
17197;SDS011;8715;51.010;6.812;2022-10-15T12:24:00;633.83;;;607.83;;
17197;SDS011;8715;51.010;6.812;2022-10-15T12:26:29;632.75;;;606.55;;
17197;SDS011;8715;51.010;6.812;2022-10-15T12:28:59;663.65;;;635.35;;
17197;SDS011;8715;51.010;6.812;2022-10-15T12:31:46;631.60;;;605.45;;
17197;SDS011;8715;51.010;6.812;2022-10-15T12:37:02;624.80;;;599.10;;
17197;SDS011;8715;51.010;6.812;2022-10-15T12:39:29;639.85;;;613.58;;
17197;SDS011;8715;51.010;6.812;2022-10-15T12:41:55;628.40;;;602.40;;
17197;SDS011;8715;51.010;6.812;2022-10-15T12:44:28;619.80;;;594.28;;
17197;SDS011;8715;51.010;6.812;2022-10-15T12:46:55;632.50;;;606.33;;
17197;SDS011;8715;51.010;6.812;2022-10-15T12:51:56;633.83;;;607.90;;
17197;SDS011;8715;51.010;6.812;2022-10-15T13:02:49;640.75;;;614.08;;
17197;SDS011;8715;51.010;6.812;2022-10-15T13:05:31;637.63;;;611.33;;
17197;SDS011;8715;51.010;6.812;2022-10-15T13:07:58;639.80;;;613.58;;
17197;SDS011;8715;51.010;6.812;2022-10-15T13:10:29;646.47;;;619.58;;
17197;SDS011;8715;51.010;6.812;2022-10-15T13:12:58;662.00;;;634.63;;
17197;SDS011;8715;51.010;6.812;2022-10-15T13:15:27;650.17;;;622.95;;
17197;SDS011;8715;51.010;6.812;2022-10-15T13:17:56;661.92;;;633.90;;
17197;SDS011;8715;51.010;6.812;2022-10-15T13:20:33;655.70;;;628.38;;
17197;SDS011;8715;51.010;6.812;2022-10-15T13:23:15;644.15;;;617.05;;
17197;SDS011;8715;51.010;6.812;2022-10-15T13:25:42;651.15;;;624.17;;
17197;SDS011;8715;51.010;6.812;2022-10-15T13:30:55;655.97;;;628.22;;
17197;SDS011;8715;51.010;6.812;2022-10-15T13:33:21;666.65;;;638.67;;
17197;SDS011;8715;51.010;6.812;2022-10-15T13:35:46;650.30;;;623.00;;
17197;SDS011;8715;51.010;6.812;2022-10-15T13:38:17;653.03;;;625.80;;
17197;SDS011;8715;51.010;6.812;2022-10-15T13:40:46;653.72;;;626.42;;
17197;SDS011;8715;51.010;6.812;2022-10-15T13:43:16;663.83;;;636.03;;
17197;SDS011;8715;51.010;6.812;2022-10-15T13:45:52;666.70;;;638.60;;
17197;SDS011;8715;51.010;6.812;2022-10-15T13:48:23;655.38;;;627.88;;
17197;SDS011;8715;51.010;6.812;2022-10-15T13:50:52;653.20;;;625.83;;
17197;SDS011;8715;51.010;6.812;2022-10-15T13:53:21;685.13;;;655.85;;
17197;SDS011;8715;51.010;6.812;2022-10-15T13:55:53;651.47;;;623.70;;
17197;SDS011;8715;51.010;6.812;2022-10-15T13:58:22;651.65;;;623.97;;
17197;SDS011;8715;51.010;6.812;2022-10-15T14:00:52;662.90;;;634.55;;
17197;SDS011;8715;51.010;6.812;2022-10-15T14:03:23;651.40;;;623.72;;
17197;SDS011;8715;51.010;6.812;2022-10-15T14:05:53;659.17;;;630.92;;
17197;SDS011;8715;51.010;6.812;2022-10-15T14:08:20;640.55;;;613.75;;
17197;SDS011;8715;51.010;6.812;2022-10-15T14:10:48;656.58;;;628.33;;
17197;SDS011;8715;51.010;6.812;2022-10-15T14:13:14;654.10;;;626.58;;
17197;SDS011;8715;51.010;6.812;2022-10-15T14:15:40;646.90;;;619.85;;
17197;SDS011;8715;51.010;6.812;2022-10-15T14:18:34;650.72;;;623.22;;
17197;SDS011;8715;51.010;6.812;2022-10-15T14:21:02;651.67;;;624.17;;
17197;SDS011;8715;51.010;6.812;2022-10-15T14:23:28;663.05;;;635.10;;
17197;SDS011;8715;51.010;6.812;2022-10-15T14:25:54;651.80;;;624.30;;
17197;SDS011;8715;51.010;6.812;2022-10-15T14:28:22;646.78;;;619.42;;
17197;SDS011;8715;51.010;6.812;2022-10-15T14:30:48;657.28;;;629.65;;
17197;SDS011;8715;51.010;6.812;2022-10-15T14:33:33;650.33;;;620.22;;
17197;SDS011;8715;51.010;6.812;2022-10-15T14:38:41;649.35;;;621.75;;
17197;SDS011;8715;51.010;6.812;2022-10-15T14:41:26;643.80;;;616.85;;
17197;SDS011;8715;51.010;6.812;2022-10-15T14:46:36;649.10;;;621.50;;
17197;SDS011;8715;51.010;6.812;2022-10-15T14:49:12;649.15;;;621.95;;
17197;SDS011;8715;51.010;6.812;2022-10-15T14:51:44;639.50;;;612.50;;
17197;SDS011;8715;51.010;6.812;2022-10-15T14:54:13;652.63;;;625.30;;
17197;SDS011;8715;51.010;6.812;2022-10-15T14:56:43;647.63;;;620.33;;
17197;SDS011;8715;51.010;6.812;2022-10-15T14:59:12;648.35;;;621.22;;
17197;SDS011;8715;51.010;6.812;2022-10-15T15:01:49;634.15;;;607.80;;
17197;SDS011;8715;51.010;6.812;2022-10-15T15:04:31;657.00;;;629.33;;
17197;SDS011;8715;51.010;6.812;2022-10-15T15:06:58;640.65;;;612.17;;
17197;SDS011;8715;51.010;6.812;2022-10-15T15:09:23;644.75;;;616.17;;
17197;SDS011;8715;51.010;6.812;2022-10-15T15:11:48;636.20;;;608.90;;
17197;SDS011;8715;51.010;6.812;2022-10-15T15:14:21;629.20;;;602.57;;
17197;SDS011;8715;51.010;6.812;2022-10-15T15:16:49;627.78;;;601.25;;
17197;SDS011;8715;51.010;6.812;2022-10-15T15:19:14;614.97;;;588.57;;
17197;SDS011;8715;51.010;6.812;2022-10-15T15:21:39;611.90;;;586.88;;
17197;SDS011;8715;51.010;6.812;2022-10-15T15:24:05;598.65;;;574.03;;
17197;SDS011;8715;51.010;6.812;2022-10-15T15:26:32;593.75;;;569.70;;
17197;SDS011;8715;51.010;6.812;2022-10-15T15:28:57;606.70;;;581.73;;
17197;SDS011;8715;51.010;6.812;2022-10-15T15:31:23;599.13;;;574.80;;
17197;SDS011;8715;51.010;6.812;2022-10-15T15:33:48;590.13;;;566.07;;
17197;SDS011;8715;51.010;6.812;2022-10-15T15:36:15;586.70;;;561.97;;
17197;SDS011;8715;51.010;6.812;2022-10-15T15:38:41;600.30;;;576.05;;
17197;SDS011;8715;51.010;6.812;2022-10-15T15:41:11;586.67;;;562.63;;
17197;SDS011;8715;51.010;6.812;2022-10-15T15:43:40;587.65;;;564.17;;
17197;SDS011;8715;51.010;6.812;2022-10-15T15:46:06;589.92;;;566.15;;
17197;SDS011;8715;51.010;6.812;2022-10-15T15:48:32;625.58;;;600.10;;
17197;SDS011;8715;51.010;6.812;2022-10-15T15:50:58;582.55;;;558.47;;
17197;SDS011;8715;51.010;6.812;2022-10-15T15:53:26;573.15;;;549.75;;
17197;SDS011;8715;51.010;6.812;2022-10-15T15:55:51;572.85;;;549.42;;
17197;SDS011;8715;51.010;6.812;2022-10-15T15:58:17;574.85;;;551.30;;
17197;SDS011;8715;51.010;6.812;2022-10-15T16:00:43;586.00;;;562.17;;
17197;SDS011;8715;51.010;6.812;2022-10-15T16:03:10;576.45;;;552.85;;
17197;SDS011;8715;51.010;6.812;2022-10-15T16:05:36;573.60;;;550.42;;
17197;SDS011;8715;51.010;6.812;2022-10-15T16:08:03;578.53;;;555.25;;
17197;SDS011;8715;51.010;6.812;2022-10-15T16:10:28;578.47;;;553.35;;
17197;SDS011;8715;51.010;6.812;2022-10-15T16:12:54;575.65;;;552.00;;
17197;SDS011;8715;51.010;6.812;2022-10-15T16:15:20;566.53;;;543.65;;